sensor_id;sensor_type;location;lat;lon;timestamp;P1;durP1;ratioP1;P2;durP2;ratioP2
26824;SDS011;14402;48.178;11.566;2023-06-10T00:00:24;3.8;;;3.1;;
26824;SDS011;14402;48.178;11.566;2023-06-10T00:00:54;4.0;;;2.9;;
26824;SDS011;14402;48.178;11.566;2023-06-10T00:01:24;4.0;;;2.9;;
26824;SDS011;14402;48.178;11.566;2023-06-10T00:01:54;4.0;;;2.9;;
26824;SDS011;14402;48.178;11.566;2023-06-10T00:02:25;3.8;;;3.1;;
26824;SDS011;14402;48.178;11.566;2023-06-10T00:02:54;3.5;;;3.2;;
26824;SDS011;14402;48.178;11.566;2023-06-10T00:03:25;3.5;;;3.2;;
26824;SDS011;14402;48.178;11.566;2023-06-10T00:03:55;3.5;;;3.2;;
26824;SDS011;14402;48.178;11.566;2023-06-10T00:04:25;3.6;;;3.2;;
26824;SDS011;14402;48.178;11.566;2023-06-10T00:04:55;3.7;;;3.2;;
26824;SDS011;14402;48.178;11.566;2023-06-10T00:05:25;3.7;;;3.2;;
26824;SDS011;14402;48.178;11.566;2023-06-10T00:05:55;3.7;;;3.2;;
26824;SDS011;14402;48.178;11.566;2023-06-10T00:06:25;3.8;;;3.2;;
26824;SDS011;14402;48.178;11.566;2023-06-10T00:06:55;4.0;;;3.1;;
26824;SDS011;14402;48.178;11.566;2023-06-10T00:07:25;4.0;;;3.1;;
26824;SDS011;14402;48.178;11.566;2023-06-10T00:07:55;4.0;;;3.1;;
26824;SDS011;14402;48.178;11.566;2023-06-10T00:08:25;3.8;;;3.2;;
26824;SDS011;14402;48.178;11.566;2023-06-10T00:08:55;3.7;;;3.4;;
26824;SDS011;14402;48.178;11.566;2023-06-10T00:09:25;3.7;;;3.4;;
26824;SDS011;14402;48.178;11.566;2023-06-10T00:09:56;3.7;;;3.4;;
26824;SDS011;14402;48.178;11.566;2023-06-10T00:10:26;3.6;;;3.3;;
26824;SDS011;14402;48.178;11.566;2023-06-10T00:10:56;3.5;;;3.2;;
26824;SDS011;14402;48.178;11.566;2023-06-10T00:11:26;3.5;;;3.2;;
26824;SDS011;14402;48.178;11.566;2023-06-10T00:11:56;3.5;;;3.2;;
26824;SDS011;14402;48.178;11.566;2023-06-10T00:12:26;3.5;;;3.2;;
26824;SDS011;14402;48.178;11.566;2023-06-10T00:12:56;3.5;;;3.2;;
26824;SDS011;14402;48.178;11.566;2023-06-10T00:13:26;3.5;;;3.2;;
26824;SDS011;14402;48.178;11.566;2023-06-10T00:13:56;3.5;;;3.2;;
26824;SDS011;14402;48.178;11.566;2023-06-10T00:14:27;4.2;;;3.2;;
26824;SDS011;14402;48.178;11.566;2023-06-10T00:14:56;5.0;;;3.2;;
26824;SDS011;14402;48.178;11.566;2023-06-10T00:15:26;5.0;;;3.2;;
26824;SDS011;14402;48.178;11.566;2023-06-10T00:15:56;5.0;;;3.2;;
26824;SDS011;14402;48.178;11.566;2023-06-10T00:16:27;4.8;;;3.2;;
26824;SDS011;14402;48.178;11.566;2023-06-10T00:16:57;4.6;;;3.3;;
26824;SDS011;14402;48.178;11.566;2023-06-10T00:17:28;4.6;;;3.3;;
26824;SDS011;14402;48.178;11.566;2023-06-10T00:17:57;4.6;;;3.3;;
26824;SDS011;14402;48.178;11.566;2023-06-10T00:18:27;4.2;;;3.3;;
26824;SDS011;14402;48.178;11.566;2023-06-10T00:18:58;3.9;;;3.3;;
26824;SDS011;14402;48.178;11.566;2023-06-10T00:19:27;3.9;;;3.3;;
26824;SDS011;14402;48.178;11.566;2023-06-10T00:19:57;3.9;;;3.3;;
26824;SDS011;14402;48.178;11.566;2023-06-10T00:20:27;3.8;;;3.3;;
26824;SDS011;14402;48.178;11.566;2023-06-10T00:20:57;3.6;;;3.3;;
26824;SDS011;14402;48.178;11.566;2023-06-10T00:21:27;3.6;;;3.3;;
26824;SDS011;14402;48.178;11.566;2023-06-10T00:21:57;3.6;;;3.3;;
26824;SDS011;14402;48.178;11.566;2023-06-10T00:22:27;4.9;;;3.5;;
26824;SDS011;14402;48.178;11.566;2023-06-10T00:22:58;6.3;;;3.8;;
26824;SDS011;14402;48.178;11.566;2023-06-10T00:23:28;6.3;;;3.8;;
26824;SDS011;14402;48.178;11.566;2023-06-10T00:23:58;6.3;;;3.8;;
26824;SDS011;14402;48.178;11.566;2023-06-10T00:24:28;5.4;;;3.8;;
26824;SDS011;14402;48.178;11.566;2023-06-10T00:24:58;4.4;;;3.8;;
26824;SDS011;14402;48.178;11.566;2023-06-10T00:25:28;4.4;;;3.8;;
26824;SDS011;14402;48.178;11.566;2023-06-10T00:25:58;4.4;;;3.8;;
26824;SDS011;14402;48.178;11.566;2023-06-10T00:26:28;4.6;;;3.8;;
26824;SDS011;14402;48.178;11.566;2023-06-10T00:26:58;4.8;;;3.8;;
26824;SDS011;14402;48.178;11.566;2023-06-10T00:27:28;4.8;;;3.8;;
26824;SDS011;14402;48.178;11.566;2023-06-10T00:27:58;4.8;;;3.8;;
26824;SDS011;14402;48.178;11.566;2023-06-10T00:28:28;4.8;;;3.7;;
26824;SDS011;14402;48.178;11.566;2023-06-10T00:28:59;4.8;;;3.6;;
26824;SDS011;14402;48.178;11.566;2023-06-10T00:29:29;4.8;;;3.6;;
26824;SDS011;14402;48.178;11.566;2023-06-10T00:29:59;4.8;;;3.6;;
26824;SDS011;14402;48.178;11.566;2023-06-10T00:30:29;4.4;;;3.5;;
26824;SDS011;14402;48.178;11.566;2023-06-10T00:30:59;4.0;;;3.5;;
26824;SDS011;14402;48.178;11.566;2023-06-10T00:31:29;4.0;;;3.5;;
26824;SDS011;14402;48.178;11.566;2023-06-10T00:31:59;4.0;;;3.5;;
26824;SDS011;14402;48.178;11.566;2023-06-10T00:32:29;4.0;;;3.6;;
26824;SDS011;14402;48.178;11.566;2023-06-10T00:32:59;4.0;;;3.7;;
26824;SDS011;14402;48.178;11.566;2023-06-10T00:33:29;4.0;;;3.7;;
26824;SDS011;14402;48.178;11.566;2023-06-10T00:33:59;4.0;;;3.7;;
26824;SDS011;14402;48.178;11.566;2023-06-10T00:34:29;4.3;;;3.8;;
26824;SDS011;14402;48.178;11.566;2023-06-10T00:34:59;4.7;;;4.0;;
26824;SDS011;14402;48.178;11.566;2023-06-10T00:35:30;4.7;;;4.0;;
26824;SDS011;14402;48.178;11.566;2023-06-10T00:36:00;4.7;;;4.0;;
26824;SDS011;14402;48.178;11.566;2023-06-10T00:36:30;4.5;;;4.0;;
26824;SDS011;14402;48.178;11.566;2023-06-10T00:37:00;4.3;;;3.9;;
26824;SDS011;14402;48.178;11.566;2023-06-10T00:37:30;4.3;;;3.9;;
26824;SDS011;14402;48.178;11.566;2023-06-10T00:38:00;4.3;;;3.9;;
26824;SDS011;14402;48.178;11.566;2023-06-10T00:38:30;4.2;;;3.8;;
26824;SDS011;14402;48.178;11.566;2023-06-10T00:39:00;4.0;;;3.7;;
26824;SDS011;14402;48.178;11.566;2023-06-10T00:39:30;4.0;;;3.7;;
26824;SDS011;14402;48.178;11.566;2023-06-10T00:40:00;4.0;;;3.7;;
26824;SDS011;14402;48.178;11.566;2023-06-10T00:40:30;4.6;;;3.8;;
26824;SDS011;14402;48.178;11.566;2023-06-10T00:41:00;5.2;;;3.8;;
26824;SDS011;14402;48.178;11.566;2023-06-10T00:41:31;5.2;;;3.8;;
26824;SDS011;14402;48.178;11.566;2023-06-10T00:42:01;5.2;;;3.8;;
26824;SDS011;14402;48.178;11.566;2023-06-10T00:42:31;5.0;;;3.8;;
26824;SDS011;14402;48.178;11.566;2023-06-10T00:43:01;4.8;;;3.9;;
26824;SDS011;14402;48.178;11.566;2023-06-10T00:43:31;4.8;;;3.9;;
26824;SDS011;14402;48.178;11.566;2023-06-10T00:44:01;4.8;;;3.9;;
26824;SDS011;14402;48.178;11.566;2023-06-10T00:44:31;4.4;;;3.8;;
26824;SDS011;14402;48.178;11.566;2023-06-10T00:45:01;4.0;;;3.6;;
26824;SDS011;14402;48.178;11.566;2023-06-10T00:45:31;4.0;;;3.6;;
26824;SDS011;14402;48.178;11.566;2023-06-10T00:46:01;4.0;;;3.6;;
26824;SDS011;14402;48.178;11.566;2023-06-10T00:46:31;4.1;;;3.7;;
26824;SDS011;14402;48.178;11.566;2023-06-10T00:47:01;4.1;;;3.7;;
26824;SDS011;14402;48.178;11.566;2023-06-10T00:47:31;4.1;;;3.7;;
26824;SDS011;14402;48.178;11.566;2023-06-10T00:48:01;4.1;;;3.7;;
26824;SDS011;14402;48.178;11.566;2023-06-10T00:48:32;4.3;;;3.8;;
26824;SDS011;14402;48.178;11.566;2023-06-10T00:49:02;4.5;;;4.0;;
26824;SDS011;14402;48.178;11.566;2023-06-10T00:49:32;4.5;;;4.0;;
26824;SDS011;14402;48.178;11.566;2023-06-10T00:50:02;4.5;;;4.0;;
26824;SDS011;14402;48.178;11.566;2023-06-10T00:50:32;4.1;;;3.7;;
26824;SDS011;14402;48.178;11.566;2023-06-10T00:51:03;3.7;;;3.4;;
26824;SDS011;14402;48.178;11.566;2023-06-10T00:51:32;3.7;;;3.4;;
26824;SDS011;14402;48.178;11.566;2023-06-10T00:52:02;3.7;;;3.4;;
26824;SDS011;14402;48.178;11.566;2023-06-10T00:52:32;4.3;;;3.7;;
26824;SDS011;14402;48.178;11.566;2023-06-10T00:53:02;5.0;;;4.0;;
26824;SDS011;14402;48.178;11.566;2023-06-10T00:53:32;5.0;;;4.0;;
26824;SDS011;14402;48.178;11.566;2023-06-10T00:54:02;5.0;;;4.0;;
26824;SDS011;14402;48.178;11.566;2023-06-10T00:54:32;4.8;;;4.1;;
26824;SDS011;14402;48.178;11.566;2023-06-10T00:55:03;4.6;;;4.1;;
26824;SDS011;14402;48.178;11.566;2023-06-10T00:55:33;4.6;;;4.1;;
26824;SDS011;14402;48.178;11.566;2023-06-10T00:56:03;4.6;;;4.1;;
26824;SDS011;14402;48.178;11.566;2023-06-10T00:56:33;4.3;;;3.9;;
26824;SDS011;14402;48.178;11.566;2023-06-10T00:57:03;4.1;;;3.7;;
26824;SDS011;14402;48.178;11.566;2023-06-10T00:57:33;4.1;;;3.7;;
26824;SDS011;14402;48.178;11.566;2023-06-10T00:58:03;4.1;;;3.7;;
26824;SDS011;14402;48.178;11.566;2023-06-10T00:58:33;4.2;;;3.8;;
26824;SDS011;14402;48.178;11.566;2023-06-10T00:59:03;4.4;;;3.8;;
26824;SDS011;14402;48.178;11.566;2023-06-10T00:59:33;4.4;;;3.8;;
26824;SDS011;14402;48.178;11.566;2023-06-10T01:00:04;4.4;;;3.8;;
26824;SDS011;14402;48.178;11.566;2023-06-10T01:00:33;4.8;;;4.0;;
26824;SDS011;14402;48.178;11.566;2023-06-10T01:01:03;5.2;;;4.2;;
26824;SDS011;14402;48.178;11.566;2023-06-10T01:01:34;5.2;;;4.2;;
26824;SDS011;14402;48.178;11.566;2023-06-10T01:02:04;5.2;;;4.2;;
26824;SDS011;14402;48.178;11.566;2023-06-10T01:02:34;5.0;;;4.2;;
26824;SDS011;14402;48.178;11.566;2023-06-10T01:03:04;4.8;;;4.3;;
26824;SDS011;14402;48.178;11.566;2023-06-10T01:03:34;4.8;;;4.3;;
26824;SDS011;14402;48.178;11.566;2023-06-10T01:04:04;4.8;;;4.3;;
26824;SDS011;14402;48.178;11.566;2023-06-10T01:04:34;4.6;;;4.1;;
26824;SDS011;14402;48.178;11.566;2023-06-10T01:05:04;4.3;;;3.9;;
26824;SDS011;14402;48.178;11.566;2023-06-10T01:05:34;4.3;;;3.9;;
26824;SDS011;14402;48.178;11.566;2023-06-10T01:06:06;4.3;;;3.9;;
26824;SDS011;14402;48.178;11.566;2023-06-10T01:06:36;4.3;;;3.9;;
26824;SDS011;14402;48.178;11.566;2023-06-10T01:07:05;4.3;;;3.9;;
26824;SDS011;14402;48.178;11.566;2023-06-10T01:07:36;4.3;;;3.9;;
26824;SDS011;14402;48.178;11.566;2023-06-10T01:08:07;4.3;;;3.9;;
26824;SDS011;14402;48.178;11.566;2023-06-10T01:08:35;4.7;;;4.1;;
26824;SDS011;14402;48.178;11.566;2023-06-10T01:09:06;5.0;;;4.2;;
26824;SDS011;14402;48.178;11.566;2023-06-10T01:09:38;5.0;;;4.2;;
26824;SDS011;14402;48.178;11.566;2023-06-10T01:10:05;5.0;;;4.2;;
26824;SDS011;14402;48.178;11.566;2023-06-10T01:10:35;5.2;;;4.2;;
26824;SDS011;14402;48.178;11.566;2023-06-10T01:11:07;5.3;;;4.2;;
26824;SDS011;14402;48.178;11.566;2023-06-10T01:11:36;5.3;;;4.2;;
26824;SDS011;14402;48.178;11.566;2023-06-10T01:12:07;5.3;;;4.2;;
26824;SDS011;14402;48.178;11.566;2023-06-10T01:12:37;4.8;;;4.1;;
26824;SDS011;14402;48.178;11.566;2023-06-10T01:13:06;4.3;;;3.9;;
26824;SDS011;14402;48.178;11.566;2023-06-10T01:13:35;4.3;;;3.9;;
26824;SDS011;14402;48.178;11.566;2023-06-10T01:14:05;4.3;;;3.9;;
26824;SDS011;14402;48.178;11.566;2023-06-10T01:14:35;4.4;;;4.0;;
26824;SDS011;14402;48.178;11.566;2023-06-10T01:15:06;4.6;;;4.0;;
26824;SDS011;14402;48.178;11.566;2023-06-10T01:15:36;4.6;;;4.0;;
26824;SDS011;14402;48.178;11.566;2023-06-10T01:16:06;4.6;;;4.0;;
26824;SDS011;14402;48.178;11.566;2023-06-10T01:16:36;4.4;;;4.0;;
26824;SDS011;14402;48.178;11.566;2023-06-10T01:17:08;4.3;;;3.9;;
26824;SDS011;14402;48.178;11.566;2023-06-10T01:17:37;4.3;;;3.9;;
26824;SDS011;14402;48.178;11.566;2023-06-10T01:18:07;4.3;;;3.9;;
26824;SDS011;14402;48.178;11.566;2023-06-10T01:18:36;4.2;;;3.8;;
26824;SDS011;14402;48.178;11.566;2023-06-10T01:19:06;4.2;;;3.8;;
26824;SDS011;14402;48.178;11.566;2023-06-10T01:19:36;4.2;;;3.8;;
26824;SDS011;14402;48.178;11.566;2023-06-10T01:20:07;4.2;;;3.8;;
26824;SDS011;14402;48.178;11.566;2023-06-10T01:20:37;4.6;;;3.8;;
26824;SDS011;14402;48.178;11.566;2023-06-10T01:21:07;5.0;;;3.9;;
26824;SDS011;14402;48.178;11.566;2023-06-10T01:21:37;5.0;;;3.9;;
26824;SDS011;14402;48.178;11.566;2023-06-10T01:22:07;5.0;;;3.9;;
26824;SDS011;14402;48.178;11.566;2023-06-10T01:22:37;4.8;;;4.0;;
26824;SDS011;14402;48.178;11.566;2023-06-10T01:23:07;4.6;;;4.1;;
26824;SDS011;14402;48.178;11.566;2023-06-10T01:23:37;4.6;;;4.1;;
26824;SDS011;14402;48.178;11.566;2023-06-10T01:24:07;4.6;;;4.1;;
26824;SDS011;14402;48.178;11.566;2023-06-10T01:24:37;5.0;;;4.2;;
26824;SDS011;14402;48.178;11.566;2023-06-10T01:25:07;5.4;;;4.3;;
26824;SDS011;14402;48.178;11.566;2023-06-10T01:25:38;5.4;;;4.3;;
26824;SDS011;14402;48.178;11.566;2023-06-10T01:26:09;5.4;;;4.3;;
26824;SDS011;14402;48.178;11.566;2023-06-10T01:26:37;5.4;;;4.4;;
26824;SDS011;14402;48.178;11.566;2023-06-10T01:27:09;5.4;;;4.4;;
26824;SDS011;14402;48.178;11.566;2023-06-10T01:27:38;5.4;;;4.4;;
26824;SDS011;14402;48.178;11.566;2023-06-10T01:28:10;5.4;;;4.4;;
26824;SDS011;14402;48.178;11.566;2023-06-10T01:28:38;5.0;;;4.3;;
26824;SDS011;14402;48.178;11.566;2023-06-10T01:29:10;4.6;;;4.2;;
26824;SDS011;14402;48.178;11.566;2023-06-10T01:29:42;4.6;;;4.2;;
26824;SDS011;14402;48.178;11.566;2023-06-10T01:30:10;4.6;;;4.2;;
26824;SDS011;14402;48.178;11.566;2023-06-10T01:30:39;4.6;;;4.1;;
26824;SDS011;14402;48.178;11.566;2023-06-10T01:31:09;4.5;;;4.1;;
26824;SDS011;14402;48.178;11.566;2023-06-10T01:31:41;4.5;;;4.1;;
26824;SDS011;14402;48.178;11.566;2023-06-10T01:32:11;4.5;;;4.1;;
26824;SDS011;14402;48.178;11.566;2023-06-10T01:32:40;4.8;;;4.2;;
26824;SDS011;14402;48.178;11.566;2023-06-10T01:33:09;5.1;;;4.3;;
26824;SDS011;14402;48.178;11.566;2023-06-10T01:33:41;5.1;;;4.3;;
26824;SDS011;14402;48.178;11.566;2023-06-10T01:34:10;5.1;;;4.3;;
26824;SDS011;14402;48.178;11.566;2023-06-10T01:34:39;4.7;;;4.2;;
26824;SDS011;14402;48.178;11.566;2023-06-10T01:35:09;4.3;;;4.0;;
26824;SDS011;14402;48.178;11.566;2023-06-10T01:35:40;4.3;;;4.0;;
26824;SDS011;14402;48.178;11.566;2023-06-10T01:36:09;4.3;;;4.0;;
26824;SDS011;14402;48.178;11.566;2023-06-10T01:36:39;4.4;;;4.0;;
26824;SDS011;14402;48.178;11.566;2023-06-10T01:37:09;4.6;;;3.9;;
26824;SDS011;14402;48.178;11.566;2023-06-10T01:37:39;4.6;;;3.9;;
26824;SDS011;14402;48.178;11.566;2023-06-10T01:38:10;4.6;;;3.9;;
26824;SDS011;14402;48.178;11.566;2023-06-10T01:38:40;4.7;;;4.2;;
26824;SDS011;14402;48.178;11.566;2023-06-10T01:39:09;4.8;;;4.4;;
26824;SDS011;14402;48.178;11.566;2023-06-10T01:39:39;4.8;;;4.4;;
26824;SDS011;14402;48.178;11.566;2023-06-10T01:40:10;4.8;;;4.4;;
26824;SDS011;14402;48.178;11.566;2023-06-10T01:40:40;4.5;;;4.2;;
26824;SDS011;14402;48.178;11.566;2023-06-10T01:41:10;4.2;;;3.9;;
26824;SDS011;14402;48.178;11.566;2023-06-10T01:41:40;4.2;;;3.9;;
26824;SDS011;14402;48.178;11.566;2023-06-10T01:42:10;4.2;;;3.9;;
26824;SDS011;14402;48.178;11.566;2023-06-10T01:42:40;4.3;;;4.0;;
26824;SDS011;14402;48.178;11.566;2023-06-10T01:43:10;4.5;;;4.1;;
26824;SDS011;14402;48.178;11.566;2023-06-10T01:43:40;4.5;;;4.1;;
26824;SDS011;14402;48.178;11.566;2023-06-10T01:44:10;4.5;;;4.1;;
26824;SDS011;14402;48.178;11.566;2023-06-10T01:44:40;4.9;;;4.3;;
26824;SDS011;14402;48.178;11.566;2023-06-10T01:45:10;5.3;;;4.6;;
26824;SDS011;14402;48.178;11.566;2023-06-10T01:45:40;5.3;;;4.6;;
26824;SDS011;14402;48.178;11.566;2023-06-10T01:46:11;5.3;;;4.6;;
26824;SDS011;14402;48.178;11.566;2023-06-10T01:46:41;5.5;;;4.9;;
26824;SDS011;14402;48.178;11.566;2023-06-10T01:47:11;5.7;;;5.2;;
26824;SDS011;14402;48.178;11.566;2023-06-10T01:47:41;5.7;;;5.2;;
26824;SDS011;14402;48.178;11.566;2023-06-10T01:48:11;5.7;;;5.2;;
26824;SDS011;14402;48.178;11.566;2023-06-10T01:48:41;5.6;;;5.1;;
26824;SDS011;14402;48.178;11.566;2023-06-10T01:49:11;5.4;;;4.9;;
26824;SDS011;14402;48.178;11.566;2023-06-10T01:49:41;5.4;;;4.9;;
26824;SDS011;14402;48.178;11.566;2023-06-10T01:50:11;5.4;;;4.9;;
26824;SDS011;14402;48.178;11.566;2023-06-10T01:50:41;5.2;;;4.7;;
26824;SDS011;14402;48.178;11.566;2023-06-10T01:51:11;4.9;;;4.5;;
26824;SDS011;14402;48.178;11.566;2023-06-10T01:51:41;4.9;;;4.5;;
26824;SDS011;14402;48.178;11.566;2023-06-10T01:52:12;4.9;;;4.5;;
26824;SDS011;14402;48.178;11.566;2023-06-10T01:52:42;4.8;;;4.3;;
26824;SDS011;14402;48.178;11.566;2023-06-10T01:53:12;4.7;;;4.2;;
26824;SDS011;14402;48.178;11.566;2023-06-10T01:53:42;4.7;;;4.2;;
26824;SDS011;14402;48.178;11.566;2023-06-10T01:54:12;4.7;;;4.2;;
26824;SDS011;14402;48.178;11.566;2023-06-10T01:54:42;4.6;;;4.1;;
26824;SDS011;14402;48.178;11.566;2023-06-10T01:55:12;4.5;;;4.1;;
26824;SDS011;14402;48.178;11.566;2023-06-10T01:55:42;4.5;;;4.1;;
26824;SDS011;14402;48.178;11.566;2023-06-10T01:56:12;4.5;;;4.1;;
26824;SDS011;14402;48.178;11.566;2023-06-10T01:56:42;4.9;;;4.1;;
26824;SDS011;14402;48.178;11.566;2023-06-10T01:57:12;5.4;;;4.2;;
26824;SDS011;14402;48.178;11.566;2023-06-10T01:57:42;5.4;;;4.2;;
26824;SDS011;14402;48.178;11.566;2023-06-10T01:58:12;5.4;;;4.2;;
26824;SDS011;14402;48.178;11.566;2023-06-10T01:58:42;5.1;;;4.2;;
26824;SDS011;14402;48.178;11.566;2023-06-10T01:59:12;4.7;;;4.3;;
26824;SDS011;14402;48.178;11.566;2023-06-10T01:59:43;4.7;;;4.3;;
26824;SDS011;14402;48.178;11.566;2023-06-10T02:00:13;4.7;;;4.3;;
26824;SDS011;14402;48.178;11.566;2023-06-10T02:00:43;4.6;;;4.2;;
26824;SDS011;14402;48.178;11.566;2023-06-10T02:01:13;4.6;;;4.2;;
26824;SDS011;14402;48.178;11.566;2023-06-10T02:01:43;4.6;;;4.2;;
26824;SDS011;14402;48.178;11.566;2023-06-10T02:02:13;4.6;;;4.2;;
26824;SDS011;14402;48.178;11.566;2023-06-10T02:02:43;4.7;;;4.1;;
26824;SDS011;14402;48.178;11.566;2023-06-10T02:03:13;4.8;;;4.1;;
26824;SDS011;14402;48.178;11.566;2023-06-10T02:03:43;4.8;;;4.1;;
26824;SDS011;14402;48.178;11.566;2023-06-10T02:04:13;4.8;;;4.1;;
26824;SDS011;14402;48.178;11.566;2023-06-10T02:04:43;4.8;;;4.2;;
26824;SDS011;14402;48.178;11.566;2023-06-10T02:05:13;4.7;;;4.3;;
26824;SDS011;14402;48.178;11.566;2023-06-10T02:05:43;4.7;;;4.3;;
26824;SDS011;14402;48.178;11.566;2023-06-10T02:06:13;4.7;;;4.3;;
26824;SDS011;14402;48.178;11.566;2023-06-10T02:06:44;4.8;;;4.4;;
26824;SDS011;14402;48.178;11.566;2023-06-10T02:07:14;4.8;;;4.4;;
26824;SDS011;14402;48.178;11.566;2023-06-10T02:07:44;4.8;;;4.4;;
26824;SDS011;14402;48.178;11.566;2023-06-10T02:08:14;4.8;;;4.4;;
26824;SDS011;14402;48.178;11.566;2023-06-10T02:08:44;4.9;;;4.4;;
26824;SDS011;14402;48.178;11.566;2023-06-10T02:09:14;5.1;;;4.4;;
26824;SDS011;14402;48.178;11.566;2023-06-10T02:09:44;5.1;;;4.4;;
26824;SDS011;14402;48.178;11.566;2023-06-10T02:10:14;5.1;;;4.4;;
26824;SDS011;14402;48.178;11.566;2023-06-10T02:10:44;5.1;;;4.3;;
26824;SDS011;14402;48.178;11.566;2023-06-10T02:11:14;5.2;;;4.2;;
26824;SDS011;14402;48.178;11.566;2023-06-10T02:11:44;5.2;;;4.2;;
26824;SDS011;14402;48.178;11.566;2023-06-10T02:12:14;5.2;;;4.2;;
26824;SDS011;14402;48.178;11.566;2023-06-10T02:12:44;5.2;;;4.1;;
26824;SDS011;14402;48.178;11.566;2023-06-10T02:13:15;5.3;;;4.1;;
26824;SDS011;14402;48.178;11.566;2023-06-10T02:13:45;5.3;;;4.1;;
26824;SDS011;14402;48.178;11.566;2023-06-10T02:14:15;5.3;;;4.1;;
26824;SDS011;14402;48.178;11.566;2023-06-10T02:14:45;5.1;;;4.2;;
26824;SDS011;14402;48.178;11.566;2023-06-10T02:15:15;4.8;;;4.4;;
26824;SDS011;14402;48.178;11.566;2023-06-10T02:15:45;4.8;;;4.4;;
26824;SDS011;14402;48.178;11.566;2023-06-10T02:16:15;4.8;;;4.4;;
26824;SDS011;14402;48.178;11.566;2023-06-10T02:16:45;4.9;;;4.2;;
26824;SDS011;14402;48.178;11.566;2023-06-10T02:17:16;5.0;;;4.0;;
26824;SDS011;14402;48.178;11.566;2023-06-10T02:17:45;5.0;;;4.0;;
26824;SDS011;14402;48.178;11.566;2023-06-10T02:18:15;5.0;;;4.0;;
26824;SDS011;14402;48.178;11.566;2023-06-10T02:18:45;4.8;;;4.1;;
26824;SDS011;14402;48.178;11.566;2023-06-10T02:19:15;4.6;;;4.2;;
26824;SDS011;14402;48.178;11.566;2023-06-10T02:19:45;4.6;;;4.2;;
26824;SDS011;14402;48.178;11.566;2023-06-10T02:20:16;4.6;;;4.2;;
26824;SDS011;14402;48.178;11.566;2023-06-10T02:20:46;4.6;;;4.2;;
26824;SDS011;14402;48.178;11.566;2023-06-10T02:21:16;4.7;;;4.3;;
26824;SDS011;14402;48.178;11.566;2023-06-10T02:21:46;4.7;;;4.3;;
26824;SDS011;14402;48.178;11.566;2023-06-10T02:22:16;4.7;;;4.3;;
26824;SDS011;14402;48.178;11.566;2023-06-10T02:22:46;5.1;;;4.2;;
26824;SDS011;14402;48.178;11.566;2023-06-10T02:23:16;5.4;;;4.1;;
26824;SDS011;14402;48.178;11.566;2023-06-10T02:23:46;5.4;;;4.1;;
26824;SDS011;14402;48.178;11.566;2023-06-10T02:24:16;5.4;;;4.1;;
26824;SDS011;14402;48.178;11.566;2023-06-10T02:24:46;5.2;;;4.3;;
26824;SDS011;14402;48.178;11.566;2023-06-10T02:25:16;5.0;;;4.6;;
26824;SDS011;14402;48.178;11.566;2023-06-10T02:25:46;5.0;;;4.6;;
26824;SDS011;14402;48.178;11.566;2023-06-10T02:26:16;5.0;;;4.6;;
26824;SDS011;14402;48.178;11.566;2023-06-10T02:26:46;4.8;;;4.4;;
26824;SDS011;14402;48.178;11.566;2023-06-10T02:27:17;4.7;;;4.3;;
26824;SDS011;14402;48.178;11.566;2023-06-10T02:27:47;4.7;;;4.3;;
26824;SDS011;14402;48.178;11.566;2023-06-10T02:28:17;4.7;;;4.3;;
26824;SDS011;14402;48.178;11.566;2023-06-10T02:28:47;4.8;;;4.4;;
26824;SDS011;14402;48.178;11.566;2023-06-10T02:29:17;5.0;;;4.5;;
26824;SDS011;14402;48.178;11.566;2023-06-10T02:29:47;5.0;;;4.5;;
26824;SDS011;14402;48.178;11.566;2023-06-10T02:30:17;5.0;;;4.5;;
26824;SDS011;14402;48.178;11.566;2023-06-10T02:30:47;4.8;;;4.4;;
26824;SDS011;14402;48.178;11.566;2023-06-10T02:31:17;4.7;;;4.3;;
26824;SDS011;14402;48.178;11.566;2023-06-10T02:31:47;4.7;;;4.3;;
26824;SDS011;14402;48.178;11.566;2023-06-10T02:32:17;4.7;;;4.3;;
26824;SDS011;14402;48.178;11.566;2023-06-10T02:32:47;4.8;;;4.4;;
26824;SDS011;14402;48.178;11.566;2023-06-10T02:33:17;5.0;;;4.4;;
26824;SDS011;14402;48.178;11.566;2023-06-10T02:33:47;5.0;;;4.4;;
26824;SDS011;14402;48.178;11.566;2023-06-10T02:34:18;5.0;;;4.4;;
26824;SDS011;14402;48.178;11.566;2023-06-10T02:34:48;4.9;;;4.4;;
26824;SDS011;14402;48.178;11.566;2023-06-10T02:35:18;4.9;;;4.5;;
26824;SDS011;14402;48.178;11.566;2023-06-10T02:35:48;4.9;;;4.5;;
26824;SDS011;14402;48.178;11.566;2023-06-10T02:36:18;4.9;;;4.5;;
26824;SDS011;14402;48.178;11.566;2023-06-10T02:36:48;5.0;;;4.4;;
26824;SDS011;14402;48.178;11.566;2023-06-10T02:37:18;5.1;;;4.4;;
26824;SDS011;14402;48.178;11.566;2023-06-10T02:37:48;5.1;;;4.4;;
26824;SDS011;14402;48.178;11.566;2023-06-10T02:38:18;5.1;;;4.4;;
26824;SDS011;14402;48.178;11.566;2023-06-10T02:38:48;5.1;;;4.4;;
26824;SDS011;14402;48.178;11.566;2023-06-10T02:39:18;5.0;;;4.5;;
26824;SDS011;14402;48.178;11.566;2023-06-10T02:39:48;5.0;;;4.5;;
26824;SDS011;14402;48.178;11.566;2023-06-10T02:40:18;5.0;;;4.5;;
26824;SDS011;14402;48.178;11.566;2023-06-10T02:40:48;5.0;;;4.4;;
26824;SDS011;14402;48.178;11.566;2023-06-10T02:41:19;5.0;;;4.4;;
26824;SDS011;14402;48.178;11.566;2023-06-10T02:41:49;5.0;;;4.4;;
26824;SDS011;14402;48.178;11.566;2023-06-10T02:42:19;5.0;;;4.4;;
26824;SDS011;14402;48.178;11.566;2023-06-10T02:42:49;4.9;;;4.4;;
26824;SDS011;14402;48.178;11.566;2023-06-10T02:43:19;4.8;;;4.3;;
26824;SDS011;14402;48.178;11.566;2023-06-10T02:43:49;4.8;;;4.3;;
26824;SDS011;14402;48.178;11.566;2023-06-10T02:44:20;4.8;;;4.3;;
26824;SDS011;14402;48.178;11.566;2023-06-10T02:44:49;4.9;;;4.4;;
26824;SDS011;14402;48.178;11.566;2023-06-10T02:45:19;4.9;;;4.4;;
26824;SDS011;14402;48.178;11.566;2023-06-10T02:45:49;4.9;;;4.4;;
26824;SDS011;14402;48.178;11.566;2023-06-10T02:46:19;4.9;;;4.4;;
26824;SDS011;14402;48.178;11.566;2023-06-10T02:46:49;4.9;;;4.4;;
26824;SDS011;14402;48.178;11.566;2023-06-10T02:47:19;4.8;;;4.4;;
26824;SDS011;14402;48.178;11.566;2023-06-10T02:47:49;4.8;;;4.4;;
26824;SDS011;14402;48.178;11.566;2023-06-10T02:48:19;4.8;;;4.4;;
26824;SDS011;14402;48.178;11.566;2023-06-10T02:48:50;5.1;;;4.4;;
26824;SDS011;14402;48.178;11.566;2023-06-10T02:49:20;5.3;;;4.3;;
26824;SDS011;14402;48.178;11.566;2023-06-10T02:49:50;5.3;;;4.3;;
26824;SDS011;14402;48.178;11.566;2023-06-10T02:50:20;5.3;;;4.3;;
26824;SDS011;14402;48.178;11.566;2023-06-10T02:50:50;5.2;;;4.4;;
26824;SDS011;14402;48.178;11.566;2023-06-10T02:51:20;5.1;;;4.6;;
26824;SDS011;14402;48.178;11.566;2023-06-10T02:51:50;5.1;;;4.6;;
26824;SDS011;14402;48.178;11.566;2023-06-10T02:52:20;5.1;;;4.6;;
26824;SDS011;14402;48.178;11.566;2023-06-10T02:52:50;5.4;;;4.6;;
26824;SDS011;14402;48.178;11.566;2023-06-10T02:53:20;5.8;;;4.6;;
26824;SDS011;14402;48.178;11.566;2023-06-10T02:53:50;5.8;;;4.6;;
26824;SDS011;14402;48.178;11.566;2023-06-10T02:54:20;5.8;;;4.6;;
26824;SDS011;14402;48.178;11.566;2023-06-10T02:54:50;5.5;;;4.6;;
26824;SDS011;14402;48.178;11.566;2023-06-10T02:55:20;5.2;;;4.7;;
26824;SDS011;14402;48.178;11.566;2023-06-10T02:55:51;5.2;;;4.7;;
26824;SDS011;14402;48.178;11.566;2023-06-10T02:56:21;5.2;;;4.7;;
26824;SDS011;14402;48.178;11.566;2023-06-10T02:56:51;5.2;;;4.8;;
26824;SDS011;14402;48.178;11.566;2023-06-10T02:57:21;5.3;;;4.8;;
26824;SDS011;14402;48.178;11.566;2023-06-10T02:57:51;5.3;;;4.8;;
26824;SDS011;14402;48.178;11.566;2023-06-10T02:58:21;5.3;;;4.8;;
26824;SDS011;14402;48.178;11.566;2023-06-10T02:58:51;5.1;;;4.7;;
26824;SDS011;14402;48.178;11.566;2023-06-10T02:59:21;4.9;;;4.5;;
26824;SDS011;14402;48.178;11.566;2023-06-10T02:59:51;4.9;;;4.5;;
26824;SDS011;14402;48.178;11.566;2023-06-10T03:00:21;4.9;;;4.5;;
26824;SDS011;14402;48.178;11.566;2023-06-10T03:00:51;5.6;;;4.8;;
26824;SDS011;14402;48.178;11.566;2023-06-10T03:01:21;6.2;;;5.1;;
26824;SDS011;14402;48.178;11.566;2023-06-10T03:01:51;6.2;;;5.1;;
26824;SDS011;14402;48.178;11.566;2023-06-10T03:02:22;6.2;;;5.1;;
26824;SDS011;14402;48.178;11.566;2023-06-10T03:02:51;5.8;;;4.9;;
26824;SDS011;14402;48.178;11.566;2023-06-10T03:03:22;5.3;;;4.8;;
26824;SDS011;14402;48.178;11.566;2023-06-10T03:03:52;5.3;;;4.8;;